Time;durP1;ratioP1;P1;durP2;ratioP2;P2;SDS_P1;SDS_P2;PMS_P1;PMS_P2;Temp;Humidity;BMP_temperature;BMP_pressure;BME280_temperature;BME280_humidity;BME280_pressure;Samples;Min_cycle;Max_cycle;Signal;HPM_P1;HPM_P2
2020/12/03 00:03:50;;;;;;;27.80;13.37;;;;;;;-1.44;100.00;97837.98;3897301;76;44065;-23
2020/12/03 00:08:58;;;;;;;32.63;15.37;;;;;;;-1.40;100.00;97823.64;3860987;76;44066;-22
2020/12/03 00:14:04;;;;;;;31.30;14.10;;;;;;;-1.45;100.00;97813.84;3826029;77;43710;-22
2020/12/03 00:19:13;;;;;;;30.60;14.83;;;;;;;-1.49;99.48;97815.00;3858243;76;43421;-22
2020/12/03 00:24:22;;;;;;;29.90;14.30;;;;;;;-1.47;99.97;97819.23;3889840;76;43737;-22
2020/12/03 00:29:27;;;;;;;29.20;14.37;;;;;;;-1.49;100.00;97820.29;3787711;77;44057;-22
2020/12/03 00:34:35;;;;;;;29.33;14.50;;;;;;;-1.47;100.00;97811.80;3831316;76;44196;-23
2020/12/03 00:39:40;;;;;;;27.40;13.40;;;;;;;-1.46;100.00;97801.57;3837912;76;44450;-22
2020/12/03 00:44:46;;;;;;;30.03;14.10;;;;;;;-1.47;100.00;97808.66;3767312;79;43725;-23
2020/12/03 00:49:53;;;;;;;27.17;13.67;;;;;;;-1.45;100.00;97793.56;3788903;77;43290;-22
2020/12/03 00:54:59;;;;;;;31.60;14.50;;;;;;;-1.40;100.00;97795.90;3820959;77;42790;-22
2020/12/03 01:00:08;;;;;;;27.80;13.93;;;;;;;-1.39;100.00;97788.34;3852339;76;43082;-22
2020/12/03 01:05:15;;;;;;;31.03;14.70;;;;;;;-1.45;100.00;97792.24;3849656;76;44477;-23
2020/12/03 01:10:25;;;;;;;30.13;14.33;;;;;;;-1.42;100.00;97781.48;3815835;77;43392;-22
2020/12/03 01:15:30;;;;;;;27.53;14.57;;;;;;;-1.46;100.00;97773.38;3841317;76;42948;-22
2020/12/03 01:20:36;;;;;;;25.77;13.33;;;;;;;-1.39;100.00;97777.78;3888143;76;43756;-23
2020/12/03 01:25:42;;;;;;;31.03;14.07;;;;;;;-1.45;100.00;97770.24;3827800;77;44160;-23
2020/12/03 01:30:48;;;;;;;28.17;14.13;;;;;;;-1.42;100.00;97763.44;3850062;76;44682;-22
2020/12/03 01:35:53;;;;;;;30.37;14.80;;;;;;;-1.50;100.00;97752.55;3871937;76;43409;-23
2020/12/03 01:40:59;;;;;;;27.40;13.53;;;;;;;-1.46;100.00;97740.81;3784367;77;44048;-22
2020/12/03 01:46:05;;;;;;;30.57;14.67;;;;;;;-1.50;99.88;97719.53;3831308;77;44073;-22
2020/12/03 01:51:15;;;;;;;30.57;14.30;;;;;;;-1.44;100.00;97718.64;3894362;75;43303;-23
2020/12/03 01:56:31;;;;;;;27.63;13.77;;;;;;;-1.43;100.00;97722.12;3904945;75;44096;-22
2020/12/03 02:01:38;;;;;;;33.10;14.47;;;;;;;-1.49;98.69;97723.38;3880879;76;43388;-22
2020/12/03 02:06:44;;;;;;;26.17;12.63;;;;;;;-1.43;99.35;97715.52;3887407;75;43995;-22
2020/12/03 02:11:50;;;;;;;25.20;12.53;;;;;;;-1.41;98.49;97703.05;3845670;75;44171;-22
2020/12/03 02:16:56;;;;;;;29.20;13.50;;;;;;;-1.43;99.18;97695.70;3837759;76;44057;-22
2020/12/03 02:22:05;;;;;;;26.73;13.30;;;;;;;-1.47;98.89;97679.22;3894483;76;44516;-22
2020/12/03 02:27:14;;;;;;;30.93;13.33;;;;;;;-1.44;99.91;97678.15;3749769;79;44080;-22
2020/12/03 02:32:21;;;;;;;29.17;14.60;;;;;;;-1.44;100.00;97663.63;3855120;76;44508;-22
2020/12/03 02:37:27;;;;;;;30.27;13.07;;;;;;;-1.47;100.00;97654.61;3888377;76;43704;-23
2020/12/03 02:42:33;;;;;;;24.97;13.43;;;;;;;-1.48;100.00;97643.66;3843006;75;43707;-22
2020/12/03 02:47:39;;;;;;;31.87;14.27;;;;;;;-1.49;100.00;97633.56;3840916;76;43252;-22
2020/12/03 02:52:45;;;;;;;26.83;13.93;;;;;;;-1.51;100.00;97631.98;3889011;76;42701;-23
2020/12/03 02:57:51;;;;;;;33.03;14.80;;;;;;;-1.54;100.00;97619.84;3869348;75;43525;-22
2020/12/03 03:02:58;;;;;;;28.57;14.17;;;;;;;-1.54;100.00;97613.23;3889371;76;43062;-23
2020/12/03 03:08:03;;;;;;;33.73;14.80;;;;;;;-1.53;100.00;97612.74;3889293;76;44056;-23
2020/12/03 03:13:09;;;;;;;30.10;14.17;;;;;;;-1.55;100.00;97615.02;3850618;75;43311;-22
2020/12/03 03:24:02;;;;;;;30.33;14.93;;;;;;;-1.50;100.00;97616.50;3874444;76;26368;-23
2020/12/03 03:29:08;;;;;;;32.07;14.93;;;;;;;-1.56;100.00;97613.32;3890556;75;43323;-22
2020/12/03 03:34:14;;;;;;;35.17;15.90;;;;;;;-1.50;100.00;97608.09;3889296;76;43413;-22
2020/12/03 03:39:22;;;;;;;30.53;15.33;;;;;;;-1.51;100.00;97602.92;3891183;75;44048;-22
2020/12/03 03:44:28;;;;;;;31.90;15.83;;;;;;;-1.47;100.00;97600.45;3863494;75;43378;-22
2020/12/03 03:49:34;;;;;;;31.17;15.70;;;;;;;-1.58;100.00;97598.05;3823636;77;44090;-23
2020/12/03 03:54:39;;;;;;;31.97;15.40;;;;;;;-1.53;100.00;97592.93;3753241;78;43726;-22
2020/12/03 03:59:48;;;;;;;32.57;15.57;;;;;;;-1.58;100.00;97586.16;3864137;75;42844;-22
2020/12/03 04:04:53;;;;;;;29.63;14.10;;;;;;;-1.54;100.00;97578.89;3886808;76;44074;-22
2020/12/03 04:09:59;;;;;;;31.57;14.47;;;;;;;-1.59;100.00;97587.11;3886083;75;43763;-22
2020/12/03 04:15:05;;;;;;;30.10;14.10;;;;;;;-1.56;100.00;97572.38;3888776;75;42798;-22
2020/12/03 04:20:16;;;;;;;31.30;14.73;;;;;;;-1.53;100.00;97562.56;3823864;75;43431;-22
2020/12/03 04:25:22;;;;;;;27.80;13.87;;;;;;;-1.56;100.00;97560.98;3887419;75;43787;-22
2020/12/03 04:30:28;;;;;;;29.57;13.90;;;;;;;-1.63;100.00;97561.02;3837359;76;43470;-22
2020/12/03 04:35:36;;;;;;;31.27;14.43;;;;;;;-1.62;100.00;97563.58;3887816;76;44046;-22
2020/12/03 04:40:44;;;;;;;27.23;13.33;;;;;;;-1.58;100.00;97570.31;3898714;75;43685;-22
2020/12/03 04:45:54;;;;;;;25.73;12.60;;;;;;;-1.61;100.00;97561.77;3837676;76;43443;-24
2020/12/03 04:51:06;;;;;;;29.30;13.10;;;;;;;-1.57;100.00;97557.97;3848605;75;44146;-22
2020/12/03 04:56:16;;;;;;;25.40;12.23;;;;;;;-1.59;100.00;97552.77;3886726;76;44181;-22
2020/12/03 05:01:53;;;;;;;24.87;12.13;;;;;;;-1.60;100.00;97545.83;3840441;76;43326;-22
2020/12/03 05:07:03;;;;;;;29.47;13.50;;;;;;;-1.62;100.00;97553.01;3886738;76;43277;-22
2020/12/03 05:12:15;;;;;;;26.23;13.27;;;;;;;-1.62;100.00;97554.33;3867412;76;43438;-22
2020/12/03 05:18:03;;;;;;;27.67;13.10;;;;;;;-1.66;100.00;97568.69;3837969;76;43994;-22
2020/12/03 05:23:18;;;;;;;27.93;12.90;;;;;;;-1.69;100.00;97552.22;3854738;75;43698;-22
2020/12/03 05:28:38;;;;;;;26.70;13.33;;;;;;;-1.67;100.00;97556.43;3864833;75;44034;-22
2020/12/03 05:33:46;;;;;;;29.63;13.27;;;;;;;-1.64;100.00;97550.08;3848982;75;43464;-24
2020/12/03 05:38:53;;;;;;;24.77;12.40;;;;;;;-1.76;100.00;97526.70;3869576;76;43721;-23
2020/12/03 05:43:58;;;;;;;26.27;12.60;;;;;;;-1.70;100.00;97547.39;3858216;76;43706;-23
2020/12/03 05:49:07;;;;;;;28.53;13.47;;;;;;;-1.73;100.00;97537.89;3914621;75;43427;-23
2020/12/03 05:54:13;;;;;;;26.60;13.40;;;;;;;-1.80;100.00;97525.22;3872287;75;43441;-24
2020/12/03 05:59:22;;;;;;;27.47;12.13;;;;;;;-1.82;100.00;97515.27;3824857;76;44419;-24
2020/12/03 06:04:32;;;;;;;28.60;13.43;;;;;;;-1.82;100.00;97520.05;3844703;76;43580;-23
2020/12/03 06:09:54;;;;;;;30.13;14.03;;;;;;;-1.82;100.00;97517.91;3868316;76;43681;-24
2020/12/03 06:15:21;;;;;;;27.67;13.43;;;;;;;-1.84;100.00;97515.84;3888793;76;43416;-23
2020/12/03 06:20:39;;;;;;;28.53;13.23;;;;;;;-1.87;100.00;97508.95;3840264;75;43338;-23
2020/12/03 06:25:48;;;;;;;30.63;14.10;;;;;;;-1.89;100.00;97510.39;3866056;75;44010;-21
2020/12/03 06:30:57;;;;;;;29.87;12.43;;;;;;;-1.92;100.00;97490.80;3851928;76;42981;-24
2020/12/03 06:36:08;;;;;;;27.13;13.10;;;;;;;-1.95;100.00;97487.53;3943897;75;43999;-21
2020/12/03 06:41:33;;;;;;;29.90;13.83;;;;;;;-1.89;100.00;97483.98;3837697;75;43436;-24
2020/12/03 06:47:35;;;;;;;27.40;12.83;;;;;;;-1.90;100.00;97480.98;3845571;76;44593;-22
2020/12/03 06:53:09;;;;;;;26.53;12.70;;;;;;;-1.88;100.00;97477.77;3905653;76;43460;-22
2020/12/03 06:58:50;;;;;;;27.53;13.63;;;;;;;-1.88;100.00;97461.92;3897566;74;44066;-22
2020/12/03 07:04:31;;;;;;;27.33;12.97;;;;;;;-1.91;99.42;97452.89;3898172;75;44411;-21
2020/12/03 07:10:26;;;;;;;26.00;12.83;;;;;;;-1.96;100.00;97448.88;3883804;75;43326;-22
2020/12/03 07:15:50;;;;;;;24.97;12.50;;;;;;;-1.89;100.00;97447.52;3857293;76;42916;-22
2020/12/03 07:21:37;;;;;;;26.73;12.90;;;;;;;-1.86;100.00;97441.55;3948334;75;43003;-22
2020/12/03 07:27:03;;;;;;;25.73;11.87;;;;;;;-1.88;98.17;97450.05;3902989;76;44451;-21
2020/12/03 07:32:10;;;;;;;25.00;12.03;;;;;;;-1.84;99.16;97454.63;3776665;78;43525;-22
2020/12/03 07:37:19;;;;;;;24.50;11.57;;;;;;;-1.82;99.04;97453.22;3889612;76;43384;-21
2020/12/03 07:42:26;;;;;;;25.47;11.37;;;;;;;-1.79;98.73;97445.92;3763319;78;44059;-23
2020/12/03 07:47:34;;;;;;;25.30;11.27;;;;;;;-1.74;99.66;97439.82;3842974;75;42899;-23
2020/12/03 07:52:40;;;;;;;26.97;12.93;;;;;;;-1.72;98.54;97427.36;3858446;75;43693;-24
2020/12/03 07:57:52;;;;;;;28.07;12.63;;;;;;;-1.76;98.46;97424.56;3710366;78;44009;-23
2020/12/03 08:02:59;;;;;;;29.43;12.70;;;;;;;-1.74;98.63;97424.47;3870113;75;43444;-23
2020/12/03 08:08:06;;;;;;;30.53;12.30;;;;;;;-1.66;99.28;97426.08;3834787;75;44023;-23
2020/12/03 08:13:23;;;;;;;26.77;12.13;;;;;;;-1.61;99.52;97425.29;3860841;75;43466;-24
2020/12/03 08:18:46;;;;;;;27.13;12.03;;;;;;;-1.61;99.11;97418.69;3859721;75;44026;-23
2020/12/03 08:23:53;;;;;;;27.97;11.53;;;;;;;-1.54;99.34;97413.81;3865923;76;43976;-23
2020/12/03 08:28:58;;;;;;;25.57;11.40;;;;;;;-1.52;99.10;97410.55;3860281;76;43400;-23
2020/12/03 08:34:04;;;;;;;26.20;10.70;;;;;;;-1.44;99.85;97412.19;3833707;75;104289;-23
2020/12/03 08:39:12;;;;;;;27.07;11.73;;;;;;;-1.39;99.74;97409.21;3729590;78;44124;-23
2020/12/03 08:44:18;;;;;;;25.83;11.03;;;;;;;-1.33;98.50;97397.35;3681030;78;43673;-23
2020/12/03 08:49:24;;;;;;;27.87;10.93;;;;;;;-1.29;99.30;97398.80;3704331;78;44017;-23
2020/12/03 08:54:31;;;;;;;25.73;11.07;;;;;;;-1.27;99.10;97393.78;3731302;79;44058;-22
2020/12/03 08:59:40;;;;;;;19.37;9.27;;;;;;;-1.20;99.04;97386.72;3731849;79;44117;-23
2020/12/03 09:04:49;;;;;;;19.63;9.37;;;;;;;-1.13;99.10;97390.61;3770290;78;43283;-21
2020/12/03 09:09:55;;;;;;;20.70;9.23;;;;;;;-1.16;98.63;97373.65;3730932;78;43549;-22
2020/12/03 09:15:05;;;;;;;20.03;8.80;;;;;;;-1.11;97.91;97360.92;3723129;78;44047;-22
2020/12/03 09:20:13;;;;;;;20.40;8.97;;;;;;;-1.04;98.22;97359.52;3750693;78;44056;-21
2020/12/03 09:25:19;;;;;;;18.70;8.50;;;;;;;-0.95;99.00;97359.32;3726842;79;43508;-21
2020/12/03 09:30:27;;;;;;;19.83;9.07;;;;;;;-0.88;96.83;97350.45;3732946;79;43470;-22
2020/12/03 09:35:35;;;;;;;20.37;8.87;;;;;;;-0.92;97.87;97337.09;3756608;78;43723;-22
2020/12/03 09:40:45;;;;;;;21.33;9.43;;;;;;;-0.85;96.80;97335.65;3724561;79;43386;-22
2020/12/03 09:45:56;;;;;;;18.67;9.13;;;;;;;-0.74;97.90;97335.67;3703389;78;43686;-21
2020/12/03 09:51:05;;;;;;;18.53;8.83;;;;;;;-0.74;97.76;97325.59;3707441;78;44392;-22
2020/12/03 09:56:10;;;;;;;19.73;8.97;;;;;;;-0.72;97.59;97312.60;3732881;79;43395;-24
2020/12/03 10:01:19;;;;;;;22.57;9.10;;;;;;;-0.66;97.76;97304.21;3733283;79;43133;-24
2020/12/03 10:06:30;;;;;;;17.93;8.50;;;;;;;-0.55;99.70;97293.27;3704937;79;43471;-24
2020/12/03 10:12:06;;;;;;;17.90;8.33;;;;;;;-0.54;99.58;97289.18;3733051;79;44443;-24
2020/12/03 10:17:16;;;;;;;19.20;8.70;;;;;;;-0.54;97.84;97291.00;3787330;78;44895;-24
2020/12/03 10:22:30;;;;;;;19.30;8.40;;;;;;;-0.44;99.62;97266.82;3718204;78;43408;-25
2020/12/03 10:27:41;;;;;;;24.50;13.27;;;;;;;-0.43;97.23;97256.60;3687516;79;44013;-24
2020/12/03 10:32:50;;;;;;;20.03;8.80;;;;;;;-0.38;98.31;97235.89;3743933;78;43365;-24
2020/12/03 10:37:59;;;;;;;18.90;8.83;;;;;;;-0.21;99.99;97223.95;3715355;78;43827;-24
2020/12/03 10:43:08;;;;;;;17.73;8.20;;;;;;;-0.12;98.83;97215.77;3677885;79;43377;-24
2020/12/03 10:48:19;;;;;;;19.07;9.23;;;;;;;-0.11;99.66;97200.24;3731944;78;43327;-24
2020/12/03 10:53:26;;;;;;;20.03;8.60;;;;;;;-0.09;99.26;97198.31;3741935;77;44079;-24
2020/12/03 10:58:35;;;;;;;17.47;8.33;;;;;;;-0.15;98.72;97193.50;3728372;77;43410;-25
2020/12/03 11:03:42;;;;;;;17.30;8.00;;;;;;;-0.15;98.38;97173.65;3734397;77;43969;-24
2020/12/03 11:08:49;;;;;;;15.43;7.80;;;;;;;-0.06;99.50;97171.57;3761285;79;43111;-24
2020/12/03 11:13:55;;;;;;;14.73;7.47;;;;;;;-0.13;97.77;97164.28;3787545;77;43955;-24
2020/12/03 11:19:03;;;;;;;17.80;7.80;;;;;;;-0.01;98.16;97159.30;3768735;77;43337;-24
2020/12/03 11:24:13;;;;;;;16.73;7.20;;;;;;;-0.01;96.95;97160.13;3740562;79;43375;-24
2020/12/03 11:29:19;;;;;;;15.87;7.70;;;;;;;0.07;98.53;97156.86;3760974;77;44170;-24
2020/12/03 11:34:36;;;;;;;14.90;7.37;;;;;;;0.11;96.97;97145.06;3788760;77;43708;-24
2020/12/03 11:39:43;;;;;;;13.80;6.70;;;;;;;0.13;96.22;97143.59;3785948;77;44041;-24
2020/12/03 11:50:17;;;;;;;14.10;6.00;;;;;;;0.24;99.11;97138.24;3773124;78;43104;-25
2020/12/03 11:55:25;;;;;;;13.57;6.70;;;;;;;0.26;99.53;97129.69;3648035;79;43371;-24
2020/12/03 12:00:31;;;;;;;11.93;6.10;;;;;;;0.34;97.42;97120.25;3702272;80;43777;-24
2020/12/03 12:05:47;;;;;;;10.90;4.93;;;;;;;0.20;98.03;97130.69;3728673;79;44078;-25
2020/12/03 12:10:56;;;;;;;10.57;5.50;;;;;;;0.25;98.63;97117.41;3692977;80;43685;-26
2020/12/03 12:15:59;;;;;;;10.53;5.63;;;;;;;0.25;98.92;97108.61;3720817;79;43773;-24
2020/12/03 12:21:06;;;;;;;8.97;4.80;;;;;;;0.26;99.21;97100.55;3700752;79;44152;-26
2020/12/03 12:26:12;;;;;;;9.67;4.90;;;;;;;0.30;99.42;97095.83;3645403;81;43289;-24
2020/12/03 12:31:18;;;;;;;9.40;5.17;;;;;;;0.37;100.00;97093.01;3690503;80;43442;-26
2020/12/03 12:36:24;;;;;;;8.00;4.23;;;;;;;0.41;100.00;97083.02;3708597;79;43167;-26
2020/12/03 12:41:30;;;;;;;9.87;5.03;;;;;;;0.26;100.00;97086.45;3717050;79;44617;-26
2020/12/03 12:46:37;;;;;;;12.27;6.00;;;;;;;0.29;100.00;97076.44;3704025;80;44014;-26
2020/12/03 12:51:43;;;;;;;12.70;6.10;;;;;;;0.27;100.00;97072.24;3705953;79;43771;-25
2020/12/03 12:56:49;;;;;;;11.37;5.67;;;;;;;0.30;100.00;97068.84;3704118;78;44070;-25
2020/12/03 13:01:56;;;;;;;13.23;6.00;;;;;;;0.39;100.00;97063.25;3695910;79;44107;-26
2020/12/03 13:07:06;;;;;;;10.67;5.83;;;;;;;0.37;100.00;97064.36;3701303;80;43106;-27
2020/12/03 13:12:13;;;;;;;10.93;5.80;;;;;;;0.40;100.00;97058.31;3720316;79;44406;-26
2020/12/03 13:17:21;;;;;;;13.27;6.40;;;;;;;0.51;100.00;97045.48;3648669;80;43318;-26
2020/12/03 13:22:27;;;;;;;12.47;6.63;;;;;;;0.53;100.00;97040.86;3752095;79;43990;-26
2020/12/03 13:27:35;;;;;;;12.40;6.57;;;;;;;0.50;100.00;97039.83;3701872;80;43437;-27
2020/12/03 13:32:42;;;;;;;14.63;7.30;;;;;;;0.54;100.00;97035.92;3706141;79;44380;-26
2020/12/03 13:37:48;;;;;;;14.03;7.17;;;;;;;0.50;100.00;97037.18;3746678;79;43482;-26
2020/12/03 13:42:54;;;;;;;12.93;6.77;;;;;;;0.52;100.00;97033.06;3695656;80;43729;-26
2020/12/03 13:47:59;;;;;;;13.93;7.10;;;;;;;0.52;100.00;97033.91;3731522;79;43052;-26
2020/12/03 13:53:05;;;;;;;12.73;6.57;;;;;;;0.59;100.00;97026.25;3708622;79;43449;-26
2020/12/03 13:58:11;;;;;;;11.50;6.47;;;;;;;0.54;100.00;97021.84;3702673;78;43951;-26
2020/12/03 14:03:17;;;;;;;12.50;6.40;;;;;;;0.45;100.00;97016.84;3722194;78;44038;-26
2020/12/03 14:08:23;;;;;;;11.07;6.10;;;;;;;0.59;100.00;97010.34;3744797;78;43447;-26
2020/12/03 14:13:29;;;;;;;12.57;6.77;;;;;;;0.58;100.00;97009.52;3703646;80;43955;-26
2020/12/03 14:18:37;;;;;;;12.90;7.30;;;;;;;0.61;100.00;97001.31;3730275;78;43125;-26
2020/12/03 14:23:43;;;;;;;12.70;6.90;;;;;;;0.58;100.00;97009.52;3710539;78;44074;-26
2020/12/03 14:28:49;;;;;;;14.60;7.83;;;;;;;0.56;100.00;97002.19;3705150;80;43426;-26
2020/12/03 14:33:56;;;;;;;13.57;7.00;;;;;;;0.58;100.00;96992.80;3732429;78;43673;-26
2020/12/03 14:39:02;;;;;;;13.17;7.67;;;;;;;0.50;100.00;96980.20;3735623;78;44088;-25
2020/12/03 14:44:08;;;;;;;13.57;7.10;;;;;;;0.54;100.00;96983.42;3736554;78;44122;-26
2020/12/03 14:49:17;;;;;;;12.00;7.07;;;;;;;0.53;100.00;96965.34;3673592;78;44459;-26
2020/12/03 14:54:28;;;;;;;13.43;7.40;;;;;;;0.52;100.00;96948.27;3683303;78;43686;-26
2020/12/03 14:59:31;;;;;;;12.17;7.23;;;;;;;0.55;100.00;96938.23;3713630;78;43721;-27
2020/12/03 15:04:36;;;;;;;12.33;6.90;;;;;;;0.42;100.00;96934.97;3727925;78;44018;-27
2020/12/03 15:09:43;;;;;;;15.73;7.73;;;;;;;0.43;100.00;96939.30;3703051;80;43394;-24
2020/12/03 15:14:49;;;;;;;16.90;8.23;;;;;;;0.42;100.00;96924.38;3713677;78;43151;-24
2020/12/03 15:19:55;;;;;;;15.23;8.57;;;;;;;0.27;100.00;96910.20;3681375;78;43713;-24
2020/12/03 15:25:01;;;;;;;14.50;8.73;;;;;;;0.21;100.00;96903.28;3690750;80;43712;-27
2020/12/03 15:30:07;;;;;;;18.47;9.73;;;;;;;0.09;100.00;96880.02;3714385;78;43101;-27
2020/12/03 15:35:14;;;;;;;15.20;8.27;;;;;;;-0.04;100.00;96878.92;3709753;78;43378;-26
2020/12/03 15:40:21;;;;;;;14.20;7.67;;;;;;;-0.22;100.00;96874.73;3701011;80;44082;-25
2020/12/03 15:45:27;;;;;;;14.80;7.73;;;;;;;-0.34;100.00;96872.17;3722865;78;43993;-26
2020/12/03 15:50:33;;;;;;;15.43;7.80;;;;;;;-0.33;100.00;96868.56;3712826;78;44098;-25
2020/12/03 15:55:40;;;;;;;15.33;7.93;;;;;;;-0.45;100.00;96869.61;3708042;80;43364;-26
2020/12/03 16:00:47;;;;;;;14.57;7.70;;;;;;;-0.50;100.00;96874.44;3718991;79;43444;-26
2020/12/03 16:05:55;;;;;;;13.67;7.70;;;;;;;-0.58;100.00;96881.69;3742082;79;44056;-26
2020/12/03 16:11:01;;;;;;;15.83;8.90;;;;;;;-0.65;100.00;96883.19;3694304;79;44084;-26
2020/12/03 16:16:07;;;;;;;14.60;7.60;;;;;;;-0.83;100.00;96869.70;3732375;79;44391;-25
2020/12/03 16:21:14;;;;;;;15.07;7.90;;;;;;;-0.83;100.00;96872.34;3697085;79;44070;-26
2020/12/03 16:26:20;;;;;;;16.83;8.60;;;;;;;-0.97;100.00;96859.79;3703668;80;44883;-25
2020/12/03 16:31:30;;;;;;;17.83;8.47;;;;;;;-1.01;100.00;96861.03;3724159;79;43476;-26
2020/12/03 16:36:39;;;;;;;18.50;8.87;;;;;;;-1.05;100.00;96857.42;3705581;79;43716;-25
2020/12/03 16:41:45;;;;;;;18.83;9.03;;;;;;;-1.11;100.00;96842.91;3723944;79;44160;-26
2020/12/03 16:46:51;;;;;;;14.90;8.23;;;;;;;-1.18;100.00;96837.80;3716749;79;43755;-25
2020/12/03 16:52:01;;;;;;;17.27;8.67;;;;;;;-1.23;100.00;96833.39;3691236;80;43428;-26
2020/12/03 16:57:08;;;;;;;18.27;8.80;;;;;;;-1.27;100.00;96832.31;3701345;80;44030;-26
2020/12/03 17:02:13;;;;;;;20.60;8.87;;;;;;;-1.30;100.00;96829.91;3730231;79;43697;-25
2020/12/03 17:07:20;;;;;;;19.67;9.13;;;;;;;-1.32;100.00;96841.08;3701344;79;44519;-25
2020/12/03 17:12:25;;;;;;;18.83;8.47;;;;;;;-1.32;100.00;96845.55;3724856;79;43646;-25
2020/12/03 17:17:31;;;;;;;18.63;9.57;;;;;;;-1.31;100.00;96840.13;3711895;79;44033;-26
2020/12/03 17:22:37;;;;;;;19.77;9.43;;;;;;;-1.23;100.00;96830.75;3710595;79;42689;-26
2020/12/03 17:27:43;;;;;;;18.37;9.77;;;;;;;-1.14;100.00;96835.27;3704713;79;44269;-25
2020/12/03 17:32:49;;;;;;;14.03;8.07;;;;;;;-1.06;100.00;96838.59;3708105;79;43342;-26
2020/12/03 17:37:56;;;;;;;12.03;6.37;;;;;;;-0.86;100.00;96819.25;3675792;80;43358;-25
2020/12/03 17:43:01;;;;;;;13.47;7.27;;;;;;;-0.63;100.00;96821.25;3703913;80;43725;-26
2020/12/03 17:48:07;;;;;;;12.87;6.93;;;;;;;-0.48;100.00;96820.92;3711520;79;44590;-25
2020/12/03 17:53:13;;;;;;;13.93;6.87;;;;;;;-0.33;100.00;96814.31;3703409;79;43266;-25
2020/12/03 17:58:19;;;;;;;11.70;6.57;;;;;;;-0.32;100.00;96808.52;3703279;80;44551;-25
2020/12/03 18:03:25;;;;;;;10.07;5.60;;;;;;;-0.21;100.00;96798.34;3786732;77;43684;-25
2020/12/03 18:08:31;;;;;;;11.93;5.60;;;;;;;-0.20;100.00;96784.97;3762845;79;44075;-25
2020/12/03 18:13:37;;;;;;;9.93;5.33;;;;;;;-0.17;98.09;96777.23;3761335;79;44078;-26
2020/12/03 18:18:44;;;;;;;12.70;5.30;;;;;;;-0.13;95.20;96769.39;3755240;77;43980;-25
2020/12/03 18:23:53;;;;;;;9.83;4.97;;;;;;;-0.10;92.05;96757.22;3763283;77;43400;-25
2020/12/03 18:29:04;;;;;;;9.57;5.23;;;;;;;-0.08;92.38;96765.01;3749247;79;43444;-25
2020/12/03 18:34:12;;;;;;;10.20;5.90;;;;;;;-0.18;93.79;96754.41;3825712;77;43481;-25
2020/12/03 18:39:20;;;;;;;10.47;4.90;;;;;;;-0.28;93.74;96748.23;3760333;79;43994;-25
2020/12/03 18:44:26;;;;;;;8.93;5.17;;;;;;;-0.37;93.63;96737.98;3768239;77;44047;-25
2020/12/03 18:49:33;;;;;;;10.47;4.93;;;;;;;-0.42;95.69;96721.20;3788001;77;43475;-25
2020/12/03 18:54:40;;;;;;;10.27;5.67;;;;;;;-0.47;95.15;96719.42;3630543;80;43367;-24
2020/12/03 18:59:46;;;;;;;12.63;6.00;;;;;;;-0.41;93.94;96720.20;3689831;79;42700;-25
2020/12/03 19:04:53;;;;;;;12.17;5.93;;;;;;;-0.32;93.05;96700.89;3743385;78;44583;-25
2020/12/03 19:09:59;;;;;;;12.40;6.40;;;;;;;-0.25;91.76;96676.52;3742513;77;43336;-24
2020/12/03 19:15:05;;;;;;;12.57;6.73;;;;;;;-0.19;92.39;96666.23;3614691;80;44067;-22
2020/12/03 19:20:15;;;;;;;12.07;6.40;;;;;;;-0.19;93.22;96649.02;3676991;79;44562;-22
2020/12/03 19:25:21;;;;;;;12.37;7.00;;;;;;;-0.24;92.17;96641.14;3676529;80;43261;-22
2020/12/03 19:30:27;;;;;;;13.53;6.87;;;;;;;-0.25;92.73;96628.42;3654379;80;43694;-22
2020/12/03 19:35:33;;;;;;;11.43;6.23;;;;;;;-0.26;93.96;96621.45;3750068;77;43374;-22
2020/12/03 19:40:40;;;;;;;12.70;6.53;;;;;;;-0.23;96.20;96612.39;3745905;78;44064;-22
2020/12/03 19:45:46;;;;;;;14.13;7.13;;;;;;;-0.30;97.95;96596.73;3748946;78;44501;-21
2020/12/03 19:50:53;;;;;;;15.47;7.77;;;;;;;-0.40;96.86;96592.74;3658879;80;43053;-22
2020/12/03 19:55:59;;;;;;;15.00;7.83;;;;;;;-0.48;98.25;96588.13;3751029;78;43326;-22
2020/12/03 20:01:05;;;;;;;16.90;8.27;;;;;;;-0.52;97.79;96591.55;3707339;79;43420;-22
2020/12/03 20:06:11;;;;;;;16.50;8.10;;;;;;;-0.51;99.08;96583.11;3708080;79;44640;-22
2020/12/03 20:11:19;;;;;;;18.07;8.33;;;;;;;-0.54;98.25;96582.09;3655173;79;44428;-22
2020/12/03 20:16:25;;;;;;;19.13;9.03;;;;;;;-0.58;100.00;96576.70;3655440;79;44097;-22
2020/12/03 20:21:31;;;;;;;22.37;9.73;;;;;;;-0.65;100.00;96564.02;3686564;80;43260;-21
2020/12/03 20:26:39;;;;;;;19.50;9.13;;;;;;;-0.81;100.00;96551.33;3706274;80;44173;-21
2020/12/03 20:31:46;;;;;;;19.80;9.33;;;;;;;-0.80;100.00;96541.11;3707413;79;42877;-21
2020/12/03 20:36:52;;;;;;;20.63;9.83;;;;;;;-0.88;100.00;96528.25;3696012;79;44409;-21
2020/12/03 20:41:59;;;;;;;19.57;10.43;;;;;;;-0.94;100.00;96504.48;3700574;79;43722;-21
2020/12/03 20:47:05;;;;;;;21.13;10.63;;;;;;;-0.98;100.00;96495.18;3668275;80;44088;-21
2020/12/03 20:52:12;;;;;;;21.87;10.73;;;;;;;-1.04;100.00;96484.67;3692172;79;44076;-21
2020/12/03 20:57:17;;;;;;;23.60;11.33;;;;;;;-1.17;100.00;96473.02;3696458;80;43718;-21
2020/12/03 21:02:24;;;;;;;25.30;11.50;;;;;;;-1.17;100.00;96471.70;3696566;80;43689;-21
2020/12/03 21:07:31;;;;;;;23.60;10.97;;;;;;;-1.21;100.00;96466.35;3715486;79;44007;-21
2020/12/03 21:12:37;;;;;;;22.33;10.87;;;;;;;-1.26;100.00;96466.77;3697141;79;44152;-21
2020/12/03 21:17:42;;;;;;;23.43;10.73;;;;;;;-1.25;100.00;96455.23;3672993;79;43726;-21
2020/12/03 21:22:50;;;;;;;23.93;11.40;;;;;;;-1.27;100.00;96451.03;3707195;79;43717;-21
2020/12/03 21:27:56;;;;;;;24.70;11.80;;;;;;;-1.31;100.00;96438.59;3677440;80;43353;-21
2020/12/03 21:33:02;;;;;;;24.60;11.20;;;;;;;-1.32;100.00;96425.02;3697755;80;43722;-21
2020/12/03 21:38:08;;;;;;;22.10;10.93;;;;;;;-1.38;100.00;96424.27;3677883;80;43725;-21
2020/12/03 21:43:14;;;;;;;22.63;10.73;;;;;;;-1.44;100.00;96421.68;3638586;81;44037;-21
2020/12/03 21:48:22;;;;;;;22.87;11.17;;;;;;;-1.43;100.00;96426.47;3684348;79;43445;-20
2020/12/03 21:53:28;;;;;;;23.10;11.30;;;;;;;-1.46;100.00;96418.80;3738237;79;43700;-22
2020/12/03 21:58:35;;;;;;;20.27;9.97;;;;;;;-1.46;100.00;96402.95;3686517;79;43487;-22
2020/12/03 22:03:40;;;;;;;20.40;10.30;;;;;;;-1.50;100.00;96406.86;3612536;81;44459;-20
2020/12/03 22:08:47;;;;;;;20.90;10.03;;;;;;;-1.55;100.00;96392.75;3712402;79;43523;-21
2020/12/03 22:13:54;;;;;;;23.70;11.17;;;;;;;-1.62;100.00;96385.00;3700771;80;43467;-20
2020/12/03 22:18:59;;;;;;;21.37;10.57;;;;;;;-1.64;100.00;96373.73;3610903;80;43447;-20
2020/12/03 22:24:05;;;;;;;23.80;11.27;;;;;;;-1.64;100.00;96354.78;3754509;79;44509;-21
2020/12/03 22:29:11;;;;;;;21.70;10.93;;;;;;;-1.59;100.00;96343.31;3695855;79;42679;-21
2020/12/03 22:34:17;;;;;;;20.00;9.90;;;;;;;-1.58;100.00;96323.86;3701624;80;44050;-21
2020/12/03 22:39:23;;;;;;;18.27;9.07;;;;;;;-1.53;100.00;96309.42;3723339;79;44483;-20
2020/12/03 22:44:29;;;;;;;18.57;9.13;;;;;;;-1.49;100.00;96310.83;3701020;80;43381;-22
2020/12/03 22:49:34;;;;;;;17.60;8.40;;;;;;;-1.48;100.00;96300.12;3700379;80;43698;-21
2020/12/03 22:54:40;;;;;;;17.67;8.30;;;;;;;-1.44;100.00;96294.06;3751867;79;44061;-20
2020/12/03 22:59:46;;;;;;;16.30;8.30;;;;;;;-1.35;100.00;96302.97;3710471;79;43734;-20
2020/12/03 23:04:52;;;;;;;16.63;8.77;;;;;;;-1.35;100.00;96293.72;3686791;79;43314;-20
2020/12/03 23:09:58;;;;;;;17.20;8.63;;;;;;;-1.38;100.00;96283.43;3720675;79;43227;-20
2020/12/03 23:15:04;;;;;;;18.93;9.07;;;;;;;-1.42;100.00;96276.28;3702886;79;44794;-20
2020/12/03 23:20:10;;;;;;;18.50;9.60;;;;;;;-1.35;100.00;96274.73;3703580;79;44021;-20
2020/12/03 23:25:16;;;;;;;23.10;10.47;;;;;;;-1.17;100.00;96259.51;3757374;79;44091;-20
2020/12/03 23:30:22;;;;;;;21.03;10.43;;;;;;;-1.16;100.00;96252.75;3645704;80;43705;-20
2020/12/03 23:35:28;;;;;;;26.87;11.57;;;;;;;-1.11;100.00;96256.28;3701897;79;43748;-22
2020/12/03 23:40:34;;;;;;;23.40;11.23;;;;;;;-1.06;100.00;96242.67;3648722;80;44117;-20
2020/12/03 23:45:40;;;;;;;26.33;11.57;;;;;;;-1.12;100.00;96241.44;3701529;80;43117;-20
2020/12/03 23:50:47;;;;;;;25.30;12.43;;;;;;;-1.14;100.00;96232.81;3636988;80;44494;-22